French Lick, IN

5:52 AM EST on December 03, 2016 (GMT -0500)
fL | | Change Station

Elev 758 ft 38.53 °N, 86.65 °W | Updated 2 minutes ago

Overcast
Overcast
36.6 °F
Feels Like 37 °F
N
0.0
Wind Variable Wind from WSW
Gusts 0.0 mph

Today
High -- | Low -- °F
--% Chance of Precip.
Yesterday
High -- | Low -- °F
Precip. -- in
Pressure 30.43 in
Visibility 10.0 miles
Clouds Overcast 3500 ft
Windchill 37 °F
Dew Point 33 °F
Humidity 86%
Rainfall 0.00 in
Snow Depth Not available.
7:47 AM 5:25 PM
Waxing Crescent, 14% visible
METAR KHNB 031035Z 00000KT 10SM OVC035 03/00 A3037 RMK AO2 SLP304 PWINO FZRANO RVRNO
Pressure 30.43 in
Visibility 10.0 miles
Clouds Overcast 3500 ft
Windchill 37 °F
Dew Point 33 °F
Humidity 86%
Rainfall 0.00 in
Snow Depth Not available.
7:47 AM 5:25 PM
Waxing Crescent, 14% visible
METAR KHNB 031035Z 00000KT 10SM OVC035 03/00 A3037 RMK AO2 SLP304 PWINO FZRANO RVRNO

10-Day Weather Forecast

Almanac

Astronomy

Dec. 03, 2016 Rise Set
Actual Time
Civil Twilight
Nautical Twilight
Astronomical Twilight
Moon
Length of Visible Light
Length of Day
Tomorrow will be .
, % of the Moon is Illuminated

Today's Extremes

State Highs State Lows

Community

WunderPhotos

Upload Photos

1,955,434 photos uploaded!

WunderBlog® & News

Nearby

Air Quality

  Air Quality AQ Index Pollutant
Not available.

Snow Depth

Station Depth Elevation

Earthquake Activity

City Distance Mag. Time & Date
Minimum magnitude displayed is 2.5.

Coastal Water Temperatures

Place Temperature

Stations

Nearby Weather Stations

Station Location Temp. Windchill Dew Point Humidity Wind Precip. Elev Updated Type
                   

Watches & Warnings

There are currently no watches in effect.